Silver Bergen — LAHO6 — position and weather

sailwx.info

Track history (hours):
 
Tides and Currents Weather Stations Pressure Air Temp Water Temp Dewpoint Dewpoint Depression Visibility Wind Speed Wind Dir Waves Ship Positions

Silver Bergen

Last reported at 2014-Sep-19 01:31 UTC. Time now 2014-Sep-19 01:53 UTC.
Position N 54°27' E 018°39'.

Length 97 m; draft 5.8 m.

Type: Cargo ship. MMSI: 257951000.

Date/timePositionNaut miles runAvg speedWind from/ knotsBaromVisibWave heightAir tempDewpointWater temp
2014-Sep-19 01:31N 54°27' E 018°39'0 0.0
2014-Sep-19 00:31N 54°27' E 018°39'0 0.0
2014-Sep-18 23:31N 54°27' E 018°39'8 8.0
2014-Sep-18 22:34N 54°32' E 018°48'1414.2
2014-Sep-18 21:33N 54°45' E 018°59'1413.7
2014-Sep-18 20:34N 54°52' E 018°38'1413.8
2014-Sep-18 19:33N 54°54' E 018°15'1414.5
2014-Sep-18 18:33N 54°54' E 017°49'1414.2
2014-Sep-18 17:33N 54°53' E 017°24'5714.1
2014-Sep-18 13:31N 54°50' E 015°46'1414.5
2014-Sep-18 12:33N 54°52' E 015°22'1414.4
2014-Sep-18 11:34N 54°54' E 014°57'1414.2
2014-Sep-18 10:34N 54°55' E 014°33'1414.2
2014-Sep-18 09:33N 54°57' E 014°08'1513.9
2014-Sep-18 08:30N 54°60' E 013°43'1212.4
2014-Sep-18 07:33N 55°06' E 013°26'1414.1
2014-Sep-18 06:33N 55°08' E 013°01'1413.7
2014-Sep-18 05:33N 55°11' E 012°38'1514.6
2014-Sep-18 04:33N 55°26' E 012°40'1313.1
2014-Sep-18 03:33N 55°39' E 012°41'1413.7
2014-Sep-18 02:33N 55°53' E 012°39'1312.8
2014-Sep-18 01:33N 56°05' E 012°35'1313.3
2014-Sep-18 00:34N 56°13' E 012°15'1313.3
2014-Sep-17 23:33N 56°23' E 012°01'1413.9
2014-Sep-17 22:33N 56°37' E 011°55'1513.8
2014-Sep-17 21:27N 56°52' E 011°46'1313.9
2014-Sep-17 20:31N 57°04' E 011°39'1313.7
2014-Sep-17 19:33N 57°16' E 011°31'1313.4
2014-Sep-17 18:33N 57°28' E 011°20'1413.9
2014-Sep-17 17:33N 57°38' E 011°01'1414.0
2014-Sep-17 16:32N 57°47' E 010°41'14212.7
2014-Sep-17 05:19N 58°03' E 006°15'1112.7
2014-Sep-17 04:29N 58°10' E 006°00'  
2014-Sep-14 18:33N 61°34' W 006°38'1515.3
2014-Sep-14 17:33N 61°49' W 006°34'1515.3
2014-Sep-14 16:33N 62°04' W 006°32'1212.0
2014-Sep-14 15:32N 62°14' W 006°48'0 0.0
2014-Sep-14 14:29N 62°14' W 006°48'0 0.0
2014-Sep-14 13:29N 62°14' W 006°48'0 0.0
2014-Sep-14 12:29N 62°14' W 006°48'0 0.0
2014-Sep-14 11:32N 62°14' W 006°48'0 0.0
2014-Sep-14 10:29N 62°14' W 006°48'0 0.0
2014-Sep-14 09:29N 62°14' W 006°48'0 0.0
2014-Sep-14 08:26N 62°14' W 006°48'0 0.0
2014-Sep-14 07:32N 62°14' W 006°48'2 2.2
2014-Sep-14 06:33N 62°14' W 006°43'6 0.2
2014-Sep-12 18:32N 62°10' W 006°35'1515.2
2014-Sep-12 17:33N 61°58' W 006°15'1514.7
2014-Sep-12 16:33N 61°48' W 005°54'1714.4
2014-Sep-12 15:23N 61°35' W 005°31'61214.6
2014-Sep-10 21:20N 52°45' E 003°55'1012.8
2014-Sep-10 20:33N 52°37' E 004°05'1312.7
2014-Sep-10 19:33N 52°30' E 004°22'9 8.9
2014-Sep-10 18:33N 52°28' E 004°36'2 2.3
2014-Sep-10 17:32N 52°28' E 004°40'0 0.0
2014-Sep-10 16:32N 52°28' E 004°40'0 0.0
2014-Sep-10 15:32N 52°28' E 004°40'0 0.0
2014-Sep-10 14:32N 52°28' E 004°40'0 0.0
2014-Sep-10 13:32N 52°28' E 004°40'0 0.0
2014-Sep-10 12:32N 52°28' E 004°40'0 0.0
2014-Sep-10 11:32N 52°28' E 004°40'0 0.0
2014-Sep-10 10:32N 52°28' E 004°40'0 0.0
2014-Sep-10 09:32N 52°28' E 004°40'0 0.0
2014-Sep-10 08:32N 52°28' E 004°40'0 0.0
2014-Sep-10 07:32N 52°28' E 004°40'0 0.0
2014-Sep-10 06:29N 52°28' E 004°40'0 0.0
2014-Sep-10 05:32N 52°28' E 004°40'0 0.0
2014-Sep-10 04:32N 52°28' E 004°40'0 0.0
2014-Sep-10 03:32N 52°28' E 004°40'0 0.0
2014-Sep-10 02:32N 52°28' E 004°40'0 0.0
2014-Sep-10 01:32N 52°28' E 004°40'0 0.0
2014-Sep-10 00:32N 52°28' E 004°40'0 0.0
2014-Sep-09 23:32N 52°28' E 004°40'0 0.0
2014-Sep-09 22:32N 52°28' E 004°40'0 0.0
2014-Sep-09 21:32N 52°28' E 004°40'0 0.0
2014-Sep-09 20:32N 52°28' E 004°40'0 0.0
2014-Sep-09 19:31N 52°28' E 004°40'0 0.0
2014-Sep-09 18:32N 52°28' E 004°40'0 0.0
2014-Sep-09 17:32N 52°28' E 004°40'0 0.0
2014-Sep-09 16:32N 52°28' E 004°40'0 0.0
2014-Sep-09 15:32N 52°28' E 004°40'0 0.0
2014-Sep-09 14:32N 52°28' E 004°40'0 0.0
2014-Sep-09 13:32N 52°28' E 004°40'0 0.0
2014-Sep-09 12:32N 52°28' E 004°40'0 0.0
2014-Sep-09 11:32N 52°28' E 004°40'0 0.0
2014-Sep-09 10:32N 52°28' E 004°40'0 0.0
2014-Sep-09 09:32N 52°28' E 004°40'0 0.0
2014-Sep-09 08:32N 52°28' E 004°40'0 0.0
2014-Sep-09 07:32N 52°28' E 004°40'0 0.0
2014-Sep-09 06:32N 52°28' E 004°40'0 0.0
2014-Sep-09 05:32N 52°28' E 004°40'0 0.0
2014-Sep-09 04:32N 52°28' E 004°40'0 0.0
2014-Sep-09 03:32N 52°28' E 004°40'0 0.0
2014-Sep-09 02:32N 52°28' E 004°40'  
Track history (hours):
 
Tides and Currents Weather Stations Pressure Air Temp Water Temp Dewpoint Dewpoint Depression Visibility Wind Speed Wind Dir Waves Ship Positions

Silver Bergen

Last reported at 2014-Sep-19 01:31 UTC. Time now 2014-Sep-19 01:53 UTC.
Position N 54°27' E 018°39'.

Length 97 m; draft 5.8 m.

Type: Cargo ship. MMSI: 257951000.

Date/timePositionNaut miles runAvg speedWind from/ knotsBaromVisibWave heightAir tempDewpointWater temp
2014-Sep-19 01:31N 54°27' E 018°39'0 0.0
2014-Sep-19 00:31N 54°27' E 018°39'0 0.0
2014-Sep-18 23:31N 54°27' E 018°39'8 8.0
2014-Sep-18 22:34N 54°32' E 018°48'1414.2
2014-Sep-18 21:33N 54°45' E 018°59'1413.7
2014-Sep-18 20:34N 54°52' E 018°38'1413.8
2014-Sep-18 19:33N 54°54' E 018°15'1414.5
2014-Sep-18 18:33N 54°54' E 017°49'1414.2
2014-Sep-18 17:33N 54°53' E 017°24'5714.1
2014-Sep-18 13:31N 54°50' E 015°46'1414.5
2014-Sep-18 12:33N 54°52' E 015°22'1414.4
2014-Sep-18 11:34N 54°54' E 014°57'1414.2
2014-Sep-18 10:34N 54°55' E 014°33'1414.2
2014-Sep-18 09:33N 54°57' E 014°08'1513.9
2014-Sep-18 08:30N 54°60' E 013°43'1212.4
2014-Sep-18 07:33N 55°06' E 013°26'1414.1
2014-Sep-18 06:33N 55°08' E 013°01'1413.7
2014-Sep-18 05:33N 55°11' E 012°38'1514.6
2014-Sep-18 04:33N 55°26' E 012°40'1313.1
2014-Sep-18 03:33N 55°39' E 012°41'1413.7
2014-Sep-18 02:33N 55°53' E 012°39'1312.8
2014-Sep-18 01:33N 56°05' E 012°35'1313.3
2014-Sep-18 00:34N 56°13' E 012°15'1313.3
2014-Sep-17 23:33N 56°23' E 012°01'1413.9
2014-Sep-17 22:33N 56°37' E 011°55'1513.8
2014-Sep-17 21:27N 56°52' E 011°46'1313.9
2014-Sep-17 20:31N 57°04' E 011°39'1313.7
2014-Sep-17 19:33N 57°16' E 011°31'1313.4
2014-Sep-17 18:33N 57°28' E 011°20'1413.9
2014-Sep-17 17:33N 57°38' E 011°01'1414.0
2014-Sep-17 16:32N 57°47' E 010°41'14212.7
2014-Sep-17 05:19N 58°03' E 006°15'1112.7
2014-Sep-17 04:29N 58°10' E 006°00'  
2014-Sep-14 18:33N 61°34' W 006°38'1515.3
2014-Sep-14 17:33N 61°49' W 006°34'1515.3
2014-Sep-14 16:33N 62°04' W 006°32'1212.0
2014-Sep-14 15:32N 62°14' W 006°48'0 0.0
2014-Sep-14 14:29N 62°14' W 006°48'0 0.0
2014-Sep-14 13:29N 62°14' W 006°48'0 0.0
2014-Sep-14 12:29N 62°14' W 006°48'0 0.0
2014-Sep-14 11:32N 62°14' W 006°48'0 0.0
2014-Sep-14 10:29N 62°14' W 006°48'0 0.0
2014-Sep-14 09:29N 62°14' W 006°48'0 0.0
2014-Sep-14 08:26N 62°14' W 006°48'0 0.0
2014-Sep-14 07:32N 62°14' W 006°48'2 2.2
2014-Sep-14 06:33N 62°14' W 006°43'6 0.2
2014-Sep-12 18:32N 62°10' W 006°35'1515.2
2014-Sep-12 17:33N 61°58' W 006°15'1514.7
2014-Sep-12 16:33N 61°48' W 005°54'1714.4
2014-Sep-12 15:23N 61°35' W 005°31'61214.6
2014-Sep-10 21:20N 52°45' E 003°55'1012.8
2014-Sep-10 20:33N 52°37' E 004°05'1312.7
2014-Sep-10 19:33N 52°30' E 004°22'9 8.9
2014-Sep-10 18:33N 52°28' E 004°36'2 2.3
2014-Sep-10 17:32N 52°28' E 004°40'0 0.0
2014-Sep-10 16:32N 52°28' E 004°40'0 0.0
2014-Sep-10 15:32N 52°28' E 004°40'0 0.0
2014-Sep-10 14:32N 52°28' E 004°40'0 0.0
2014-Sep-10 13:32N 52°28' E 004°40'0 0.0
2014-Sep-10 12:32N 52°28' E 004°40'0 0.0
2014-Sep-10 11:32N 52°28' E 004°40'0 0.0
2014-Sep-10 10:32N 52°28' E 004°40'0 0.0
2014-Sep-10 09:32N 52°28' E 004°40'0 0.0
2014-Sep-10 08:32N 52°28' E 004°40'0 0.0
2014-Sep-10 07:32N 52°28' E 004°40'0 0.0
2014-Sep-10 06:29N 52°28' E 004°40'0 0.0
2014-Sep-10 05:32N 52°28' E 004°40'0 0.0
2014-Sep-10 04:32N 52°28' E 004°40'0 0.0
2014-Sep-10 03:32N 52°28' E 004°40'0 0.0
2014-Sep-10 02:32N 52°28' E 004°40'0 0.0
2014-Sep-10 01:32N 52°28' E 004°40'0 0.0
2014-Sep-10 00:32N 52°28' E 004°40'0 0.0
2014-Sep-09 23:32N 52°28' E 004°40'0 0.0
2014-Sep-09 22:32N 52°28' E 004°40'0 0.0
2014-Sep-09 21:32N 52°28' E 004°40'0 0.0
2014-Sep-09 20:32N 52°28' E 004°40'0 0.0
2014-Sep-09 19:31N 52°28' E 004°40'0 0.0
2014-Sep-09 18:32N 52°28' E 004°40'0 0.0
2014-Sep-09 17:32N 52°28' E 004°40'0 0.0
2014-Sep-09 16:32N 52°28' E 004°40'0 0.0
2014-Sep-09 15:32N 52°28' E 004°40'0 0.0
2014-Sep-09 14:32N 52°28' E 004°40'0 0.0
2014-Sep-09 13:32N 52°28' E 004°40'0 0.0
2014-Sep-09 12:32N 52°28' E 004°40'0 0.0
2014-Sep-09 11:32N 52°28' E 004°40'0 0.0
2014-Sep-09 10:32N 52°28' E 004°40'0 0.0
2014-Sep-09 09:32N 52°28' E 004°40'0 0.0
2014-Sep-09 08:32N 52°28' E 004°40'0 0.0
2014-Sep-09 07:32N 52°28' E 004°40'0 0.0
2014-Sep-09 06:32N 52°28' E 004°40'0 0.0
2014-Sep-09 05:32N 52°28' E 004°40'0 0.0
2014-Sep-09 04:32N 52°28' E 004°40'0 0.0
2014-Sep-09 03:32N 52°28' E 004°40'0 0.0
2014-Sep-09 02:32N 52°28' E 004°40'  

Dump ship's entire track history